KBPG/BPG METAR and TAF weather

Enter ICAO airport designator
Station Type Date Time Source
KBPG METAR 2019/08/24 20:30 UTC NOAA

KBPG 242030Z AUTO 00000KT 10SM SCT055 32/18 A2997 RMK AO2 T03230178


Station Type Date Time Source
KBPG Decoded METAR 2019/08/24 20:30 UTC NOAA

Station name not available
Aug 24, 2019 - 04:30 PM EDT / 2019.08.24 2030 UTC
Wind: Calm:0
Visibility: 10 mile(s):0
Sky conditions: partly cloudy
Temperature: 90.1 F (32.3 C)
Dew Point: 64.0 F (17.8 C)
Relative Humidity: 42%
Pressure (altimeter): 29.97 in. Hg (1014 hPa)
ob: KBPG 242030Z AUTO 00000KT 10SM SCT055 32/18 A2997 RMK AO2 T03230178
cycle: 20

Station Type Date Time Source
KBPG TAF UTC NOAA

Error!

Example: see airport list